createdAt,value
2022-10-09T00:02:34.207Z,96.00
2022-10-09T00:07:35.055Z,96.09
2022-10-09T00:12:35.916Z,96.11
2022-10-09T00:17:38.080Z,96.16
2022-10-09T00:22:39.206Z,96.66
2022-10-09T00:27:40.062Z,96.57
2022-10-09T00:32:42.216Z,96.16
2022-10-09T00:37:43.006Z,96.61
2022-10-09T00:42:45.580Z,96.45
2022-10-09T00:47:51.388Z,96.65
2022-10-09T00:52:55.983Z,96.91
2022-10-09T00:57:58.414Z,96.64
2022-10-09T01:03:00.991Z,97.26
2022-10-09T01:08:09.426Z,97.13
2022-10-09T01:13:16.823Z,97.21
2022-10-09T01:18:25.215Z,97.28
2022-10-09T01:23:54.337Z,97.25
2022-10-09T01:29:03.429Z,97.20
2022-10-09T01:34:05.069Z,97.43
2022-10-09T01:39:07.875Z,97.46
2022-10-09T01:44:18.432Z,97.23
2022-10-09T01:49:32.051Z,97.41
2022-10-09T01:54:38.345Z,97.53
2022-10-09T01:59:43.321Z,97.71
2022-10-09T02:04:45.039Z,97.85
2022-10-09T02:09:46.862Z,98.24
2022-10-09T02:14:49.718Z,98.29
2022-10-09T02:19:54.354Z,98.25
2022-10-09T02:24:56.290Z,98.44
2022-10-09T02:30:00.556Z,98.04
2022-10-09T02:35:01.488Z,98.22
2022-10-09T02:40:04.860Z,98.17
2022-10-09T02:45:10.915Z,98.20
2022-10-09T02:50:11.693Z,98.10
2022-10-09T02:55:12.492Z,98.21
2022-10-09T03:00:16.020Z,97.72
2022-10-09T03:05:16.944Z,98.06
2022-10-09T03:10:17.816Z,97.89
2022-10-09T03:15:19.954Z,97.86
2022-10-09T03:20:21.211Z,97.87
2022-10-09T03:25:21.963Z,98.01
2022-10-09T03:30:24.124Z,98.10
2022-10-09T03:35:24.891Z,98.05
2022-10-09T03:40:25.717Z,98.33
2022-10-09T03:45:27.865Z,98.17
2022-10-09T03:50:28.599Z,98.33
2022-10-09T03:55:29.404Z,98.33
2022-10-09T04:00:32.309Z,98.17
2022-10-09T04:05:35.165Z,98.40
2022-10-09T04:10:35.981Z,98.37
2022-10-09T04:15:38.156Z,98.24
2022-10-09T04:20:38.953Z,98.23
2022-10-09T04:25:39.722Z,98.36
2022-10-09T04:30:42.168Z,97.95
2022-10-09T04:35:43.489Z,98.58
2022-10-09T04:40:44.311Z,98.55
2022-10-09T04:45:46.576Z,97.99
2022-10-09T04:50:47.857Z,98.13
2022-10-09T04:55:48.648Z,98.35
2022-10-09T05:00:50.773Z,98.36
2022-10-09T05:05:51.572Z,98.15
2022-10-09T05:10:52.339Z,98.04
2022-10-09T05:15:54.487Z,98.13
2022-10-09T05:20:55.425Z,98.34
2022-10-09T05:25:56.859Z,98.25
2022-10-09T05:31:00.242Z,98.05
2022-10-09T05:36:03.262Z,98.00
2022-10-09T05:41:06.478Z,97.31
2022-10-09T05:46:10.795Z,97.36
2022-10-09T05:51:14.462Z,97.52
2022-10-09T05:56:17.780Z,97.43
2022-10-09T06:01:20.679Z,97.03
2022-10-09T06:06:28.107Z,96.85
2022-10-09T06:11:31.646Z,96.97
2022-10-09T06:16:35.978Z,96.77
2022-10-09T06:21:37.072Z,96.96
2022-10-09T06:26:38.152Z,96.69
2022-10-09T06:31:40.291Z,96.68
2022-10-09T06:36:41.053Z,96.56
2022-10-09T06:41:41.935Z,96.11
2022-10-09T06:46:59.122Z,95.89
2022-10-09T06:51:59.930Z,95.73
2022-10-09T06:57:00.786Z,95.72
2022-10-09T07:02:03.032Z,95.42
2022-10-09T07:07:03.971Z,94.65
2022-10-09T07:12:04.865Z,93.92
2022-10-09T07:17:07.003Z,97.82
2022-10-09T07:22:11.371Z,99.15
2022-10-09T07:27:12.216Z,96.44
2022-10-09T07:32:14.409Z,94.11
2022-10-09T07:37:15.188Z,91.54
2022-10-09T07:42:16.006Z,90.40
2022-10-09T07:47:18.134Z,90.21
2022-10-09T07:52:18.917Z,90.26
2022-10-09T07:57:19.714Z,89.92
2022-10-09T08:02:21.869Z,88.78
2022-10-09T08:07:22.733Z,87.74
2022-10-09T08:12:23.785Z,86.89
2022-10-09T08:17:26.836Z,86.17
2022-10-09T08:22:27.670Z,85.63
2022-10-09T08:27:28.567Z,84.54
2022-10-09T08:32:30.915Z,84.39
2022-10-09T08:37:31.743Z,82.97
2022-10-09T08:42:39.421Z,82.73
2022-10-09T08:47:46.112Z,82.82
2022-10-09T08:52:53.955Z,81.99
2022-10-09T08:57:57.567Z,80.86
2022-10-09T09:03:29.495Z,80.44
2022-10-09T09:08:42.271Z,78.53
2022-10-09T09:13:53.410Z,77.65
2022-10-09T09:19:17.746Z,76.94
2022-10-09T09:24:20.634Z,75.88
2022-10-09T09:29:24.355Z,76.43
2022-10-09T09:34:37.750Z,75.67
2022-10-09T09:45:03.864Z,74.23
2022-10-09T09:50:18.535Z,73.83
2022-10-09T09:55:27.556Z,71.78
2022-10-09T10:00:28.934Z,70.54
2022-10-09T10:05:37.033Z,70.81
2022-10-09T10:10:38.021Z,70.18
2022-10-09T10:15:39.045Z,68.84
2022-10-09T10:20:46.293Z,67.48
2022-10-09T10:25:47.763Z,67.71
2022-10-09T10:30:50.824Z,66.36
2022-10-09T10:35:54.995Z,66.27
2022-10-09T10:41:03.630Z,65.44
2022-10-09T10:46:13.295Z,65.11
2022-10-09T10:51:43.826Z,63.57
2022-10-09T10:56:49.680Z,61.64
2022-10-09T11:02:00.497Z,62.90
2022-10-09T11:07:10.025Z,60.43
2022-10-09T11:12:29.995Z,61.27
2022-10-09T11:17:44.200Z,60.02
2022-10-09T11:23:02.306Z,60.21
2022-10-09T11:28:09.991Z,56.34
2022-10-09T11:33:25.665Z,57.37
2022-10-09T11:38:31.795Z,56.21
2022-10-09T11:43:47.512Z,55.44
2022-10-09T11:48:56.378Z,53.99
2022-10-09T11:53:58.894Z,54.53
2022-10-09T11:59:01.846Z,52.88
2022-10-09T12:04:08.642Z,55.26
2022-10-09T12:09:11.150Z,54.00
2022-10-09T12:14:24.610Z,53.13
2022-10-09T12:19:28.684Z,52.49
2022-10-09T12:24:37.871Z,52.03
2022-10-09T12:29:46.084Z,53.32
2022-10-09T12:34:49.579Z,50.48
2022-10-09T12:39:51.741Z,48.86
2022-10-09T12:44:55.243Z,49.91
2022-10-09T12:49:58.546Z,51.52
2022-10-09T12:55:02.691Z,51.49
2022-10-09T13:00:03.640Z,51.83
2022-10-09T13:05:05.160Z,50.78
2022-10-09T13:10:17.622Z,50.92
2022-10-09T13:15:31.197Z,52.21
2022-10-09T13:20:33.498Z,52.99
2022-10-09T13:25:38.523Z,51.60
2022-10-09T13:30:39.344Z,51.83
2022-10-09T13:35:40.104Z,52.82
2022-10-09T13:40:43.380Z,50.91
2022-10-09T13:45:44.188Z,50.31
2022-10-09T13:50:45.327Z,50.22
2022-10-09T13:55:47.456Z,50.85
2022-10-09T14:00:48.663Z,50.89
2022-10-09T14:05:49.499Z,51.17
2022-10-09T14:10:51.777Z,50.08
2022-10-09T14:15:53.243Z,50.65
2022-10-09T14:20:54.070Z,51.37
2022-10-09T14:25:56.325Z,50.92
2022-10-09T14:30:57.221Z,50.45
2022-10-09T14:35:58.198Z,50.69
2022-10-09T14:41:00.627Z,51.18
2022-10-09T14:46:06.500Z,52.22
2022-10-09T14:51:11.955Z,52.13
2022-10-09T14:56:16.208Z,52.31
2022-10-09T15:01:18.942Z,53.14
2022-10-09T15:06:24.100Z,52.86
2022-10-09T15:11:30.129Z,53.45
2022-10-09T15:16:30.992Z,54.02
2022-10-09T15:21:33.733Z,54.40
2022-10-09T15:26:37.332Z,55.03
2022-10-09T15:31:39.936Z,54.23
2022-10-09T15:36:43.134Z,56.57
2022-10-09T15:41:45.645Z,54.33
2022-10-09T15:46:47.793Z,56.06
2022-10-09T15:51:48.625Z,56.57
2022-10-09T15:56:50.967Z,56.72
2022-10-09T16:01:51.798Z,56.58
2022-10-09T16:06:52.628Z,56.58
2022-10-09T16:11:57.980Z,57.18
2022-10-09T16:26:23.612Z,38.75
2022-10-09T16:31:26.743Z,48.55
2022-10-09T16:36:28.144Z,49.15
2022-10-09T16:41:30.274Z,51.07
2022-10-09T16:51:38.424Z,54.87
2022-10-09T16:56:41.321Z,55.88
2022-10-09T17:01:45.113Z,57.26
2022-10-09T17:06:46.514Z,57.72
2022-10-09T17:11:49.019Z,59.34
2022-10-09T17:16:50.690Z,60.21
2022-10-09T17:21:51.533Z,61.20
2022-10-09T17:26:54.223Z,61.80
2022-10-09T17:31:55.001Z,62.68
2022-10-09T17:36:56.581Z,63.18
2022-10-09T17:41:58.736Z,64.17
2022-10-09T17:47:00.887Z,64.22
2022-10-09T17:52:01.688Z,64.47
2022-10-09T17:57:06.416Z,65.26
2022-10-09T18:02:07.263Z,64.92
2022-10-09T18:07:08.059Z,64.89
2022-10-09T18:12:10.252Z,65.92
2022-10-09T18:17:11.027Z,65.65
2022-10-09T18:22:11.848Z,66.26
2022-10-09T18:27:14.070Z,66.20
2022-10-09T18:32:14.892Z,66.00
2022-10-09T18:37:16.115Z,66.11
2022-10-09T18:42:18.318Z,66.62
2022-10-09T18:47:22.788Z,67.07
2022-10-09T18:52:24.648Z,67.59
2022-10-09T18:57:28.884Z,68.39
2022-10-09T19:02:29.803Z,68.66
2022-10-09T19:07:30.696Z,69.55
2022-10-09T19:12:32.919Z,70.40
2022-10-09T19:17:33.716Z,70.39
2022-10-09T19:22:34.583Z,71.42
2022-10-09T19:27:36.765Z,71.41
2022-10-09T19:32:37.561Z,71.92
2022-10-09T19:37:38.430Z,72.38
2022-10-09T19:42:40.689Z,72.97
2022-10-09T19:47:41.509Z,73.75
2022-10-09T19:52:42.400Z,73.15
2022-10-09T19:57:44.529Z,73.49
2022-10-09T20:02:45.303Z,74.08
2022-10-09T20:07:46.219Z,74.70
2022-10-09T20:12:48.718Z,75.07
2022-10-09T20:17:50.376Z,75.37
2022-10-09T20:22:53.729Z,76.09
2022-10-09T20:27:55.921Z,75.88
2022-10-09T20:32:59.348Z,76.76
2022-10-09T20:38:00.606Z,77.24
2022-10-09T20:43:03.200Z,76.69
2022-10-09T20:48:04.171Z,77.56
2022-10-09T20:53:05.546Z,77.09
2022-10-09T20:58:07.696Z,77.53
2022-10-09T21:03:12.340Z,78.86
2022-10-09T21:08:13.572Z,79.11
2022-10-09T21:13:16.557Z,79.07
2022-10-09T21:18:19.832Z,78.65
2022-10-09T21:23:20.613Z,79.15
2022-10-09T21:28:24.138Z,79.41
2022-10-09T21:33:24.971Z,80.31
2022-10-09T21:38:25.753Z,79.37
2022-10-09T21:43:28.155Z,80.01
2022-10-09T21:48:28.993Z,79.98
2022-10-09T21:53:29.777Z,79.99
2022-10-09T21:58:31.995Z,80.44
2022-10-09T22:03:35.025Z,80.24
2022-10-09T22:08:36.092Z,80.31
2022-10-09T22:13:38.796Z,79.39
2022-10-09T22:18:40.070Z,78.96
2022-10-09T22:23:41.877Z,78.38
2022-10-09T22:28:44.635Z,77.60
2022-10-09T22:33:49.971Z,76.30
2022-10-09T22:38:53.751Z,76.31
2022-10-09T22:43:57.788Z,76.24
2022-10-09T22:48:59.185Z,76.30
2022-10-09T22:54:00.906Z,75.54
2022-10-09T22:59:03.449Z,75.12
2022-10-09T23:04:06.743Z,73.96
2022-10-09T23:09:09.748Z,74.16
2022-10-09T23:14:13.372Z,73.60
2022-10-09T23:19:14.452Z,73.24
2022-10-09T23:24:17.729Z,72.96
2022-10-09T23:29:21.357Z,73.47
2022-10-09T23:34:22.173Z,72.64
2022-10-09T23:39:24.544Z,72.54
2022-10-09T23:44:26.726Z,72.04
2022-10-09T23:49:27.585Z,72.45
2022-10-09T23:54:28.355Z,72.06
2022-10-09T23:59:31.932Z,71.06
